sensor_id;sensor_type;location;lat;lon;timestamp;pressure;altitude;pressure_sealevel;temperature;humidity
60417;BME280;46263;44.726;10.396;2024-03-08T00:01:48;100470.53;;;11.75;70.37
60417;BME280;46263;44.726;10.396;2024-03-08T00:04:13;100474.00;;;11.81;70.42
60417;BME280;46263;44.726;10.396;2024-03-08T00:06:40;100477.88;;;11.78;70.15
60417;BME280;46263;44.726;10.396;2024-03-08T00:09:06;100473.19;;;11.86;69.96
60417;BME280;46263;44.726;10.396;2024-03-08T00:11:33;100465.00;;;11.88;69.36
60417;BME280;46263;44.726;10.396;2024-03-08T00:14:00;100467.59;;;11.86;69.21
60417;BME280;46263;44.726;10.396;2024-03-08T00:16:25;100462.22;;;11.88;69.93
60417;BME280;46263;44.726;10.396;2024-03-08T00:18:51;100465.16;;;11.77;69.81
60417;BME280;46263;44.726;10.396;2024-03-08T00:21:16;100470.91;;;11.66;70.24
60417;BME280;46263;44.726;10.396;2024-03-08T00:23:42;100475.47;;;11.69;69.68
60417;BME280;46263;44.726;10.396;2024-03-08T00:26:07;100469.69;;;11.80;69.70
60417;BME280;46263;44.726;10.396;2024-03-08T00:28:33;100468.78;;;11.72;69.33
60417;BME280;46263;44.726;10.396;2024-03-08T00:31:00;100474.38;;;11.72;69.63
60417;BME280;46263;44.726;10.396;2024-03-08T00:33:25;100466.22;;;11.74;69.36
60417;BME280;46263;44.726;10.396;2024-03-08T00:35:53;100461.09;;;11.78;69.72
60417;BME280;46263;44.726;10.396;2024-03-08T00:38:18;100467.13;;;11.82;68.96
60417;BME280;46263;44.726;10.396;2024-03-08T00:40:44;100460.31;;;11.77;69.27
60417;BME280;46263;44.726;10.396;2024-03-08T00:43:10;100458.34;;;11.91;69.01
60417;BME280;46263;44.726;10.396;2024-03-08T00:45:35;100465.91;;;11.95;68.54
60417;BME280;46263;44.726;10.396;2024-03-08T00:48:03;100465.09;;;12.00;69.44
60417;BME280;46263;44.726;10.396;2024-03-08T00:50:28;100466.91;;;12.16;69.12
60417;BME280;46263;44.726;10.396;2024-03-08T00:52:54;100471.34;;;12.25;68.01
60417;BME280;46263;44.726;10.396;2024-03-08T00:55:19;100468.72;;;12.32;70.04
60417;BME280;46263;44.726;10.396;2024-03-08T00:57:45;100469.00;;;12.29;68.60
60417;BME280;46263;44.726;10.396;2024-03-08T01:00:11;100473.06;;;12.15;68.35
60417;BME280;46263;44.726;10.396;2024-03-08T01:02:40;100476.81;;;11.81;69.66
60417;BME280;46263;44.726;10.396;2024-03-08T01:05:06;100471.81;;;11.74;69.79
60417;BME280;46263;44.726;10.396;2024-03-08T01:07:34;100473.56;;;11.95;69.54
60417;BME280;46263;44.726;10.396;2024-03-08T01:10:02;100470.09;;;12.07;71.16
60417;BME280;46263;44.726;10.396;2024-03-08T01:12:28;100474.41;;;12.08;71.17
60417;BME280;46263;44.726;10.396;2024-03-08T01:14:53;100471.75;;;11.97;71.34
60417;BME280;46263;44.726;10.396;2024-03-08T01:17:19;100479.72;;;11.93;71.34
60417;BME280;46263;44.726;10.396;2024-03-08T01:19:44;100481.84;;;12.06;70.86
60417;BME280;46263;44.726;10.396;2024-03-08T01:22:10;100484.25;;;12.15;71.76
60417;BME280;46263;44.726;10.396;2024-03-08T01:24:36;100477.06;;;12.19;71.09
60417;BME280;46263;44.726;10.396;2024-03-08T01:27:02;100478.84;;;12.17;70.71
60417;BME280;46263;44.726;10.396;2024-03-08T01:29:28;100467.28;;;12.07;71.06
60417;BME280;46263;44.726;10.396;2024-03-08T01:31:55;100460.41;;;12.08;70.62
60417;BME280;46263;44.726;10.396;2024-03-08T01:34:21;100459.72;;;12.21;70.88
60417;BME280;46263;44.726;10.396;2024-03-08T01:36:48;100465.25;;;12.26;71.27
60417;BME280;46263;44.726;10.396;2024-03-08T01:39:14;100460.91;;;12.25;70.45
60417;BME280;46263;44.726;10.396;2024-03-08T01:41:39;100462.50;;;12.21;70.06
60417;BME280;46263;44.726;10.396;2024-03-08T01:44:05;100459.16;;;12.22;71.74
60417;BME280;46263;44.726;10.396;2024-03-08T01:46:33;100458.94;;;12.20;72.17
60417;BME280;46263;44.726;10.396;2024-03-08T01:49:00;100454.69;;;12.32;71.22
60417;BME280;46263;44.726;10.396;2024-03-08T01:51:27;100455.25;;;12.31;71.19
60417;BME280;46263;44.726;10.396;2024-03-08T01:53:54;100457.25;;;12.30;71.13
60417;BME280;46263;44.726;10.396;2024-03-08T01:56:21;100459.75;;;12.34;71.49
60417;BME280;46263;44.726;10.396;2024-03-08T01:58:46;100458.94;;;12.20;71.90
60417;BME280;46263;44.726;10.396;2024-03-08T02:01:13;100452.34;;;12.18;72.53
60417;BME280;46263;44.726;10.396;2024-03-08T02:03:40;100458.28;;;12.14;73.08
60417;BME280;46263;44.726;10.396;2024-03-08T02:06:06;100448.81;;;12.17;73.37
60417;BME280;46263;44.726;10.396;2024-03-08T02:08:35;100445.03;;;12.15;73.96
60417;BME280;46263;44.726;10.396;2024-03-08T02:11:01;100446.41;;;12.08;74.77
60417;BME280;46263;44.726;10.396;2024-03-08T02:13:27;100450.47;;;12.07;75.75
60417;BME280;46263;44.726;10.396;2024-03-08T02:15:54;100437.75;;;12.06;75.99
60417;BME280;46263;44.726;10.396;2024-03-08T02:18:21;100439.28;;;12.07;75.81
60417;BME280;46263;44.726;10.396;2024-03-08T02:20:51;100444.28;;;11.96;76.29
60417;BME280;46263;44.726;10.396;2024-03-08T02:23:18;100435.34;;;11.97;76.98
60417;BME280;46263;44.726;10.396;2024-03-08T02:25:44;100439.66;;;11.98;77.43
60417;BME280;46263;44.726;10.396;2024-03-08T02:28:11;100447.81;;;11.96;77.83
60417;BME280;46263;44.726;10.396;2024-03-08T02:30:36;100446.09;;;11.93;78.21
60417;BME280;46263;44.726;10.396;2024-03-08T02:33:02;100451.16;;;11.95;77.86
60417;BME280;46263;44.726;10.396;2024-03-08T02:35:27;100445.25;;;11.98;77.91
60417;BME280;46263;44.726;10.396;2024-03-08T02:37:53;100441.72;;;11.98;77.72
60417;BME280;46263;44.726;10.396;2024-03-08T02:40:18;100450.47;;;12.07;77.51
60417;BME280;46263;44.726;10.396;2024-03-08T02:42:44;100446.94;;;12.07;77.30
60417;BME280;46263;44.726;10.396;2024-03-08T02:45:09;100451.53;;;12.04;77.32
60417;BME280;46263;44.726;10.396;2024-03-08T02:47:39;100461.00;;;12.01;77.52
60417;BME280;46263;44.726;10.396;2024-03-08T02:50:05;100461.75;;;12.02;77.28
60417;BME280;46263;44.726;10.396;2024-03-08T02:52:33;100461.91;;;12.09;77.10
60417;BME280;46263;44.726;10.396;2024-03-08T02:54:59;100467.28;;;12.07;76.29
60417;BME280;46263;44.726;10.396;2024-03-08T02:57:24;100469.00;;;11.74;77.24
60417;BME280;46263;44.726;10.396;2024-03-08T02:59:50;100470.00;;;11.76;77.25
60417;BME280;46263;44.726;10.396;2024-03-08T03:02:15;100472.06;;;11.76;75.85
60417;BME280;46263;44.726;10.396;2024-03-08T03:04:42;100471.69;;;11.66;74.50
60417;BME280;46263;44.726;10.396;2024-03-08T03:07:08;100472.78;;;11.58;71.00
60417;BME280;46263;44.726;10.396;2024-03-08T03:09:33;100469.53;;;11.54;70.70
60417;BME280;46263;44.726;10.396;2024-03-08T03:11:59;100480.13;;;11.61;70.03
60417;BME280;46263;44.726;10.396;2024-03-08T03:14:24;100474.53;;;11.61;69.68
60417;BME280;46263;44.726;10.396;2024-03-08T03:16:52;100470.91;;;11.66;69.64
60417;BME280;46263;44.726;10.396;2024-03-08T03:19:18;100475.28;;;11.61;69.30
60417;BME280;46263;44.726;10.396;2024-03-08T03:21:43;100477.56;;;11.63;68.77
60417;BME280;46263;44.726;10.396;2024-03-08T03:24:09;100471.38;;;11.46;68.71
60417;BME280;46263;44.726;10.396;2024-03-08T03:26:38;100478.13;;;11.56;69.44
60417;BME280;46263;44.726;10.396;2024-03-08T03:29:07;100475.22;;;11.43;69.33
60417;BME280;46263;44.726;10.396;2024-03-08T03:31:34;100467.47;;;11.30;69.35
60417;BME280;46263;44.726;10.396;2024-03-08T03:34:00;100468.28;;;11.49;69.14
60417;BME280;46263;44.726;10.396;2024-03-08T03:36:29;100473.47;;;11.40;70.41
60417;BME280;46263;44.726;10.396;2024-03-08T03:38:55;100464.69;;;11.54;70.80
60417;BME280;46263;44.726;10.396;2024-03-08T03:41:36;100466.78;;;11.48;72.21
60417;BME280;46263;44.726;10.396;2024-03-08T03:44:02;100457.28;;;11.57;72.73
60417;BME280;46263;44.726;10.396;2024-03-08T03:46:28;100453.88;;;11.64;73.56
60417;BME280;46263;44.726;10.396;2024-03-08T03:48:56;100460.19;;;11.70;73.78
60417;BME280;46263;44.726;10.396;2024-03-08T03:51:22;100469.38;;;11.65;75.06
60417;BME280;46263;44.726;10.396;2024-03-08T03:53:47;100470.38;;;11.67;75.72
60417;BME280;46263;44.726;10.396;2024-03-08T03:56:13;100463.19;;;11.72;76.46
60417;BME280;46263;44.726;10.396;2024-03-08T03:58:38;100472.13;;;11.70;77.28
60417;BME280;46263;44.726;10.396;2024-03-08T04:01:05;100468.78;;;11.72;77.99
60417;BME280;46263;44.726;10.396;2024-03-08T04:03:30;100463.66;;;11.76;79.33
60417;BME280;46263;44.726;10.396;2024-03-08T04:05:56;100462.19;;;11.69;81.52
60417;BME280;46263;44.726;10.396;2024-03-08T04:08:22;100464.09;;;11.80;82.08
60417;BME280;46263;44.726;10.396;2024-03-08T04:10:49;100465.53;;;11.86;83.13
60417;BME280;46263;44.726;10.396;2024-03-08T04:13:15;100465.84;;;11.83;83.47
60417;BME280;46263;44.726;10.396;2024-03-08T04:15:41;100472.00;;;11.81;82.84
60417;BME280;46263;44.726;10.396;2024-03-08T04:18:09;100465.84;;;11.83;82.11
60417;BME280;46263;44.726;10.396;2024-03-08T04:20:35;100466.69;;;11.78;80.56
60417;BME280;46263;44.726;10.396;2024-03-08T04:23:00;100462.88;;;11.75;79.97
60417;BME280;46263;44.726;10.396;2024-03-08T04:25:26;100464.88;;;11.80;79.04
60417;BME280;46263;44.726;10.396;2024-03-08T04:27:52;100458.41;;;11.67;76.63
60417;BME280;46263;44.726;10.396;2024-03-08T04:30:17;100470.53;;;11.75;74.31
60417;BME280;46263;44.726;10.396;2024-03-08T04:32:43;100464.50;;;11.71;75.42
60417;BME280;46263;44.726;10.396;2024-03-08T04:35:09;100462.28;;;11.64;75.94
60417;BME280;46263;44.726;10.396;2024-03-08T04:37:34;100459.94;;;11.68;76.71
60417;BME280;46263;44.726;10.396;2024-03-08T04:40:00;100470.53;;;11.75;77.11
60417;BME280;46263;44.726;10.396;2024-03-08T04:42:30;100465.69;;;11.75;77.27
60417;BME280;46263;44.726;10.396;2024-03-08T04:44:58;100461.09;;;11.78;77.77
60417;BME280;46263;44.726;10.396;2024-03-08T04:47:23;100463.66;;;11.76;77.84
60417;BME280;46263;44.726;10.396;2024-03-08T04:49:49;100463.41;;;11.74;78.67
60417;BME280;46263;44.726;10.396;2024-03-08T04:52:15;100465.63;;;11.81;79.82
60417;BME280;46263;44.726;10.396;2024-03-08T04:54:42;100463.53;;;11.87;80.43
60417;BME280;46263;44.726;10.396;2024-03-08T04:57:08;100465.00;;;11.88;81.07
60417;BME280;46263;44.726;10.396;2024-03-08T04:59:33;100463.53;;;11.87;81.16
60417;BME280;46263;44.726;10.396;2024-03-08T05:01:59;100468.22;;;11.79;79.90
60417;BME280;46263;44.726;10.396;2024-03-08T05:04:24;100474.84;;;11.76;76.04
60417;BME280;46263;44.726;10.396;2024-03-08T05:06:50;100472.03;;;11.57;73.36
60417;BME280;46263;44.726;10.396;2024-03-08T05:09:15;100477.19;;;11.48;71.19
60417;BME280;46263;44.726;10.396;2024-03-08T05:11:44;100487.84;;;11.55;70.46
60417;BME280;46263;44.726;10.396;2024-03-08T05:14:11;100485.81;;;11.50;69.59
60417;BME280;46263;44.726;10.396;2024-03-08T05:16:44;100488.19;;;11.46;69.22
60417;BME280;46263;44.726;10.396;2024-03-08T05:19:16;100483.03;;;11.50;68.99
60417;BME280;46263;44.726;10.396;2024-03-08T05:21:49;100492.50;;;11.47;69.99
60417;BME280;46263;44.726;10.396;2024-03-08T05:24:16;100487.63;;;11.47;69.41
60417;BME280;46263;44.726;10.396;2024-03-08T05:26:42;100486.78;;;11.34;68.67
60417;BME280;46263;44.726;10.396;2024-03-08T05:29:08;100491.03;;;11.16;70.10
60417;BME280;46263;44.726;10.396;2024-03-08T05:31:48;100492.06;;;11.13;70.36
60417;BME280;46263;44.726;10.396;2024-03-08T05:34:15;100498.19;;;11.12;70.28
60417;BME280;46263;44.726;10.396;2024-03-08T05:36:41;100488.88;;;11.04;70.51
60417;BME280;46263;44.726;10.396;2024-03-08T05:39:12;100486.47;;;11.13;71.11
60417;BME280;46263;44.726;10.396;2024-03-08T05:41:41;100486.19;;;11.17;71.41
60417;BME280;46263;44.726;10.396;2024-03-08T05:44:08;100487.81;;;11.31;70.88
60417;BME280;46263;44.726;10.396;2024-03-08T05:46:34;100485.84;;;11.26;70.33
60417;BME280;46263;44.726;10.396;2024-03-08T05:49:01;100492.13;;;11.32;70.39
60417;BME280;46263;44.726;10.396;2024-03-08T05:51:34;100500.41;;;11.43;69.71
60417;BME280;46263;44.726;10.396;2024-03-08T05:54:04;100490.25;;;11.40;69.55
60417;BME280;46263;44.726;10.396;2024-03-08T05:56:36;100493.88;;;11.35;70.66
60417;BME280;46263;44.726;10.396;2024-03-08T05:59:02;100493.06;;;11.40;70.53
60417;BME280;46263;44.726;10.396;2024-03-08T06:01:28;100496.88;;;11.42;70.69
60417;BME280;46263;44.726;10.396;2024-03-08T06:03:55;100501.25;;;11.38;70.92
60417;BME280;46263;44.726;10.396;2024-03-08T06:06:25;100497.44;;;11.35;70.48
60417;BME280;46263;44.726;10.396;2024-03-08T06:08:51;100503.78;;;11.36;70.49
60417;BME280;46263;44.726;10.396;2024-03-08T06:11:19;100510.84;;;11.18;71.45
60417;BME280;46263;44.726;10.396;2024-03-08T06:13:46;100516.91;;;11.22;71.94
60417;BME280;46263;44.726;10.396;2024-03-08T06:16:12;100513.00;;;11.31;72.17
60417;BME280;46263;44.726;10.396;2024-03-08T06:18:37;100514.09;;;11.22;72.59
60417;BME280;46263;44.726;10.396;2024-03-08T06:21:04;100521.81;;;11.16;73.93
60417;BME280;46263;44.726;10.396;2024-03-08T06:23:33;100522.78;;;11.19;74.16
60417;BME280;46263;44.726;10.396;2024-03-08T06:25:58;100517.66;;;11.23;75.96
60417;BME280;46263;44.726;10.396;2024-03-08T06:28:24;100512.94;;;11.36;76.33
60417;BME280;46263;44.726;10.396;2024-03-08T06:30:49;100521.03;;;11.40;77.13
60417;BME280;46263;44.726;10.396;2024-03-08T06:33:17;100515.16;;;11.43;76.25
60417;BME280;46263;44.726;10.396;2024-03-08T06:35:42;100526.06;;;11.47;75.81
60417;BME280;46263;44.726;10.396;2024-03-08T06:38:08;100530.16;;;11.46;76.68
60417;BME280;46263;44.726;10.396;2024-03-08T06:40:33;100526.63;;;11.40;77.77
60417;BME280;46263;44.726;10.396;2024-03-08T06:42:59;100526.47;;;11.32;79.05
60417;BME280;46263;44.726;10.396;2024-03-08T06:45:24;100524.66;;;11.35;79.87
60417;BME280;46263;44.726;10.396;2024-03-08T06:47:52;100526.06;;;11.47;81.01
60417;BME280;46263;44.726;10.396;2024-03-08T06:50:17;100526.53;;;11.51;80.71
60417;BME280;46263;44.726;10.396;2024-03-08T06:52:43;100516.00;;;11.62;80.39
60417;BME280;46263;44.726;10.396;2024-03-08T06:55:10;100512.66;;;11.64;80.64
60417;BME280;46263;44.726;10.396;2024-03-08T06:57:39;100520.06;;;11.61;80.63
60417;BME280;46263;44.726;10.396;2024-03-08T07:00:07;100521.97;;;11.72;81.92
60417;BME280;46263;44.726;10.396;2024-03-08T07:02:34;100508.44;;;11.76;82.28
60417;BME280;46263;44.726;10.396;2024-03-08T07:05:01;100513.16;;;11.86;81.83
60417;BME280;46263;44.726;10.396;2024-03-08T07:07:26;100512.00;;;11.76;80.47
60417;BME280;46263;44.726;10.396;2024-03-08T07:09:52;100500.97;;;11.84;81.07
60417;BME280;46263;44.726;10.396;2024-03-08T07:12:18;100507.19;;;11.95;81.70
60417;BME280;46263;44.726;10.396;2024-03-08T07:14:43;100502.13;;;11.93;81.79
60417;BME280;46263;44.726;10.396;2024-03-08T07:17:11;100505.38;;;11.97;83.41
60417;BME280;46263;44.726;10.396;2024-03-08T07:19:37;100510.28;;;12.10;85.37
60417;BME280;46263;44.726;10.396;2024-03-08T07:22:04;100508.94;;;12.16;83.58
60417;BME280;46263;44.726;10.396;2024-03-08T07:24:30;100512.66;;;12.24;82.20
60417;BME280;46263;44.726;10.396;2024-03-08T07:27:21;100509.06;;;12.05;80.51
60417;BME280;46263;44.726;10.396;2024-03-08T07:29:46;100517.25;;;12.03;81.25
60417;BME280;46263;44.726;10.396;2024-03-08T07:32:12;100518.25;;;12.06;83.41
60417;BME280;46263;44.726;10.396;2024-03-08T07:34:48;100521.91;;;12.19;84.00
60417;BME280;46263;44.726;10.396;2024-03-08T07:37:16;100523.78;;;12.11;82.32
60417;BME280;46263;44.726;10.396;2024-03-08T07:39:41;100520.69;;;12.15;81.58
60417;BME280;46263;44.726;10.396;2024-03-08T07:42:08;100527.25;;;12.17;81.60
60417;BME280;46263;44.726;10.396;2024-03-08T07:44:34;100526.19;;;12.20;82.66
60417;BME280;46263;44.726;10.396;2024-03-08T07:46:59;100527.78;;;12.34;82.07
60417;BME280;46263;44.726;10.396;2024-03-08T07:49:25;100523.91;;;12.37;82.04
60417;BME280;46263;44.726;10.396;2024-03-08T07:51:50;100536.03;;;12.45;82.45
60417;BME280;46263;44.726;10.396;2024-03-08T07:54:17;100533.22;;;12.45;82.74
60417;BME280;46263;44.726;10.396;2024-03-08T07:56:43;100527.22;;;12.54;82.58
60417;BME280;46263;44.726;10.396;2024-03-08T07:59:08;100523.69;;;12.54;83.61
60417;BME280;46263;44.726;10.396;2024-03-08T08:01:34;100523.81;;;12.61;83.58
60417;BME280;46263;44.726;10.396;2024-03-08T08:03:59;100527.50;;;12.69;82.86
60417;BME280;46263;44.726;10.396;2024-03-08T08:06:27;100538.19;;;12.71;82.40
60417;BME280;46263;44.726;10.396;2024-03-08T08:08:52;100533.69;;;12.49;82.81
60417;BME280;46263;44.726;10.396;2024-03-08T08:11:19;100541.16;;;12.60;83.50
60417;BME280;46263;44.726;10.396;2024-03-08T08:13:45;100540.69;;;12.74;83.66
60417;BME280;46263;44.726;10.396;2024-03-08T08:16:11;100536.66;;;12.88;82.91
60417;BME280;46263;44.726;10.396;2024-03-08T08:18:38;100539.69;;;12.90;83.09
60417;BME280;46263;44.726;10.396;2024-03-08T08:21:05;100531.50;;;12.92;83.05
60417;BME280;46263;44.726;10.396;2024-03-08T08:23:32;100533.78;;;12.93;82.50
60417;BME280;46263;44.726;10.396;2024-03-08T08:25:57;100535.63;;;13.04;82.64
60417;BME280;46263;44.726;10.396;2024-03-08T08:28:23;100537.16;;;13.05;82.04
60417;BME280;46263;44.726;10.396;2024-03-08T08:30:50;100535.31;;;13.07;82.42
60417;BME280;46263;44.726;10.396;2024-03-08T08:33:16;100534.25;;;13.10;81.00
60417;BME280;46263;44.726;10.396;2024-03-08T08:35:41;100530.81;;;13.17;82.17
60417;BME280;46263;44.726;10.396;2024-03-08T08:38:08;100532.09;;;13.16;82.10
60417;BME280;46263;44.726;10.396;2024-03-08T08:40:34;100538.91;;;13.21;82.76
60417;BME280;46263;44.726;10.396;2024-03-08T08:43:01;100536.09;;;13.21;83.55
60417;BME280;46263;44.726;10.396;2024-03-08T08:45:30;100534.91;;;13.29;82.64
60417;BME280;46263;44.726;10.396;2024-03-08T08:47:55;100532.66;;;13.28;82.87
60417;BME280;46263;44.726;10.396;2024-03-08T08:50:21;100532.34;;;13.31;83.06
60417;BME280;46263;44.726;10.396;2024-03-08T08:52:50;100537.41;;;13.33;82.76
60417;BME280;46263;44.726;10.396;2024-03-08T08:55:16;100528.47;;;13.34;83.24
60417;BME280;46263;44.726;10.396;2024-03-08T08:57:46;100543.56;;;13.31;84.58
60417;BME280;46263;44.726;10.396;2024-03-08T09:00:13;100540.66;;;13.37;82.81
60417;BME280;46263;44.726;10.396;2024-03-08T09:02:43;100532.16;;;13.42;83.68
60417;BME280;46263;44.726;10.396;2024-03-08T09:05:08;100536.66;;;13.45;84.13
60417;BME280;46263;44.726;10.396;2024-03-08T09:07:34;100535.38;;;13.46;83.55
60417;BME280;46263;44.726;10.396;2024-03-08T09:10:00;100537.53;;;13.53;84.15
60417;BME280;46263;44.726;10.396;2024-03-08T09:12:26;100538.72;;;13.57;83.20
60417;BME280;46263;44.726;10.396;2024-03-08T09:14:52;100545.44;;;13.54;82.88
60417;BME280;46263;44.726;10.396;2024-03-08T09:17:17;100534.31;;;13.62;81.82
60417;BME280;46263;44.726;10.396;2024-03-08T09:19:46;100529.13;;;13.66;82.33
60417;BME280;46263;44.726;10.396;2024-03-08T09:22:13;100533.13;;;13.70;82.64
60417;BME280;46263;44.726;10.396;2024-03-08T09:24:38;100530.84;;;13.82;82.00
60417;BME280;46263;44.726;10.396;2024-03-08T09:27:04;100529.78;;;13.85;81.25
60417;BME280;46263;44.726;10.396;2024-03-08T09:29:30;100539.91;;;13.88;81.69
60417;BME280;46263;44.726;10.396;2024-03-08T09:31:55;100540.13;;;13.90;81.59
60417;BME280;46263;44.726;10.396;2024-03-08T09:34:21;100537.22;;;13.82;82.00
60417;BME280;46263;44.726;10.396;2024-03-08T09:36:46;100540.56;;;13.81;81.58
60417;BME280;46263;44.726;10.396;2024-03-08T09:39:12;100537.75;;;13.81;81.44
60417;BME280;46263;44.726;10.396;2024-03-08T09:41:45;100542.09;;;13.82;81.67
60417;BME280;46263;44.726;10.396;2024-03-08T09:44:14;100540.03;;;13.95;81.64
60417;BME280;46263;44.726;10.396;2024-03-08T09:46:40;100537.63;;;13.99;81.85
60417;BME280;46263;44.726;10.396;2024-03-08T09:49:06;100535.06;;;13.88;82.42
60417;BME280;46263;44.726;10.396;2024-03-08T09:51:33;100541.53;;;13.96;81.42
60417;BME280;46263;44.726;10.396;2024-03-08T09:54:03;100536.34;;;14.00;80.57
60417;BME280;46263;44.726;10.396;2024-03-08T09:56:32;100534.16;;;14.06;80.67
60417;BME280;46263;44.726;10.396;2024-03-08T09:58:59;100547.38;;;14.11;80.59
60417;BME280;46263;44.726;10.396;2024-03-08T10:01:36;100539.03;;;14.06;80.84
60417;BME280;46263;44.726;10.396;2024-03-08T10:04:04;100538.28;;;14.05;80.51
60417;BME280;46263;44.726;10.396;2024-03-08T10:06:29;100542.50;;;14.12;80.17
60417;BME280;46263;44.726;10.396;2024-03-08T10:08:55;100538.06;;;14.16;80.22
60417;BME280;46263;44.726;10.396;2024-03-08T10:11:21;100534.16;;;14.06;80.00
60417;BME280;46263;44.726;10.396;2024-03-08T10:13:48;100530.94;;;14.15;79.96
60417;BME280;46263;44.726;10.396;2024-03-08T10:16:13;100535.25;;;14.16;80.34
60417;BME280;46263;44.726;10.396;2024-03-08T10:18:39;100528.22;;;14.10;80.95
60417;BME280;46263;44.726;10.396;2024-03-08T10:21:07;100539.19;;;14.13;81.76
60417;BME280;46263;44.726;10.396;2024-03-08T10:23:35;100528.34;;;14.17;81.70
60417;BME280;46263;44.726;10.396;2024-03-08T10:28:49;100530.94;;;14.15;80.32
60417;BME280;46263;44.726;10.396;2024-03-08T10:31:15;100525.31;;;14.15;81.24
60417;BME280;46263;44.726;10.396;2024-03-08T10:33:41;100528.13;;;14.15;81.37
60417;BME280;46263;44.726;10.396;2024-03-08T10:36:11;100531.28;;;14.12;81.49
60417;BME280;46263;44.726;10.396;2024-03-08T10:38:39;100522.50;;;14.02;82.41
60417;BME280;46263;44.726;10.396;2024-03-08T10:41:09;100522.41;;;13.95;82.00
60417;BME280;46263;44.726;10.396;2024-03-08T10:47:23;100530.72;;;14.00;82.29
60417;BME280;46263;44.726;10.396;2024-03-08T10:49:55;100535.06;;;13.88;81.66
60417;BME280;46263;44.726;10.396;2024-03-08T10:52:29;100526.75;;;13.83;82.96
60417;BME280;46263;44.726;10.396;2024-03-08T10:54:55;100531.28;;;13.86;82.44
60417;BME280;46263;44.726;10.396;2024-03-08T10:57:22;100525.97;;;13.95;82.21
60417;BME280;46263;44.726;10.396;2024-03-08T10:59:49;100527.50;;;13.96;81.63
60417;BME280;46263;44.726;10.396;2024-03-08T11:02:16;100523.34;;;14.10;80.82
60417;BME280;46263;44.726;10.396;2024-03-08T11:04:47;100518.19;;;14.14;80.73
60417;BME280;46263;44.726;10.396;2024-03-08T11:07:14;100526.81;;;14.16;80.98
60417;BME280;46263;44.726;10.396;2024-03-08T11:09:43;100518.41;;;14.16;80.60
60417;BME280;46263;44.726;10.396;2024-03-08T11:12:22;100512.31;;;14.25;81.29
60417;BME280;46263;44.726;10.396;2024-03-08T11:14:52;100509.72;;;14.27;81.67
60417;BME280;46263;44.726;10.396;2024-03-08T11:17:25;100516.19;;;14.35;81.56
60417;BME280;46263;44.726;10.396;2024-03-08T11:19:55;100502.47;;;14.32;80.84
60417;BME280;46263;44.726;10.396;2024-03-08T11:22:33;100509.59;;;14.33;80.67
60417;BME280;46263;44.726;10.396;2024-03-08T11:25:01;100510.41;;;14.20;81.59
60417;BME280;46263;44.726;10.396;2024-03-08T11:27:30;100505.28;;;14.32;81.99
60417;BME280;46263;44.726;10.396;2024-03-08T11:30:01;100499.66;;;14.32;82.58
60417;BME280;46263;44.726;10.396;2024-03-08T11:32:35;100498.22;;;14.38;82.11
60417;BME280;46263;44.726;10.396;2024-03-08T11:35:06;100494.75;;;14.45;82.18
60417;BME280;46263;44.726;10.396;2024-03-08T11:37:33;100488.56;;;14.46;80.33
60417;BME280;46263;44.726;10.396;2024-03-08T11:40:11;100487.81;;;14.46;80.73
60417;BME280;46263;44.726;10.396;2024-03-08T11:42:39;100486.38;;;14.52;81.76
60417;BME280;46263;44.726;10.396;2024-03-08T11:45:09;100481.88;;;14.49;81.91
60417;BME280;46263;44.726;10.396;2024-03-08T11:47:36;100474.03;;;14.55;81.88
60417;BME280;46263;44.726;10.396;2024-03-08T11:50:06;100481.53;;;14.53;83.08
60417;BME280;46263;44.726;10.396;2024-03-08T11:52:36;100481.19;;;14.56;84.46
60417;BME280;46263;44.726;10.396;2024-03-08T11:55:02;100478.91;;;14.55;83.25
60417;BME280;46263;44.726;10.396;2024-03-08T11:57:28;100480.63;;;14.58;82.99
60417;BME280;46263;44.726;10.396;2024-03-08T11:59:55;100475.59;;;14.64;82.99
60417;BME280;46263;44.726;10.396;2024-03-08T12:02:31;100466.81;;;14.67;83.03
60417;BME280;46263;44.726;10.396;2024-03-08T12:04:58;100461.19;;;14.67;82.58
60417;BME280;46263;44.726;10.396;2024-03-08T12:07:25;100462.94;;;14.70;82.15
60417;BME280;46263;44.726;10.396;2024-03-08T12:10:19;100462.66;;;14.61;82.38
60417;BME280;46263;44.726;10.396;2024-03-08T12:12:48;100452.72;;;14.60;82.72
60417;BME280;46263;44.726;10.396;2024-03-08T12:15:21;100456.47;;;14.62;82.94
60417;BME280;46263;44.726;10.396;2024-03-08T12:17:49;100443.09;;;14.55;82.93
60417;BME280;46263;44.726;10.396;2024-03-08T12:22:43;100450.16;;;14.69;82.80
60417;BME280;46263;44.726;10.396;2024-03-08T12:25:11;100452.75;;;14.67;83.41
60417;BME280;46263;44.726;10.396;2024-03-08T12:27:41;100439.69;;;14.70;83.52
60417;BME280;46263;44.726;10.396;2024-03-08T12:30:20;100438.78;;;14.75;83.52
60417;BME280;46263;44.726;10.396;2024-03-08T12:32:57;100435.59;;;14.78;83.30
60417;BME280;46263;44.726;10.396;2024-03-08T12:35:24;100417.63;;;14.81;82.83
60417;BME280;46263;44.726;10.396;2024-03-08T12:37:52;100417.78;;;14.76;81.85
60417;BME280;46263;44.726;10.396;2024-03-08T12:40:19;100417.56;;;14.74;82.37
60417;BME280;46263;44.726;10.396;2024-03-08T12:42:45;100409.13;;;14.74;82.92
60417;BME280;46263;44.726;10.396;2024-03-08T12:45:14;100414.97;;;14.76;83.55
60417;BME280;46263;44.726;10.396;2024-03-08T12:47:39;100421.06;;;14.67;81.83
60417;BME280;46263;44.726;10.396;2024-03-08T12:50:08;100418.03;;;14.65;82.47